Destinations Sibiu International Airport

Sibiu International Airport (LRSB / SBZ)

Flights to Sibiu International Airport

Flight number From ETE Dispatch
SPY-532 EHGG Groningen Airport Eelde 02:40

Flights from Sibiu International Airport

Flight number To ETE Dispatch
SPY-533 EHGG Groningen Airport Eelde
About

Sibiu International Airport facts

Sibiu International Airport is located in Sibiu at an elevation of 456.0 meters or 1496 feet.

Currently, Speedy Airlines serves 2 flights to and from Sibiu International Airport.

Detailed airport info

Route map

Weather

Current weather

METAR

METAR

Metar data retrieved Sunday, 21 July 2024 at 20:25 UTC

LRSB 212000Z 28004KT 9999 FEW040 BKN055 21/19 Q1011
Wind Temperature
4 kt 21c